Latest Weather Observations for Sellicks Hill

IDS60801

Issued at 11:01 pm CDT Sunday 14 February 2016 (issued every 30 minutes, with the page automatically refreshed every 10 minutes)

About weather observations | Map of weather stations | Latest weather observations for SA | Other Formats
Station Details ID: 023886 Name: MOUNT TERRIBLE RADAR Lat: -35.33 Lon: 138.50 Height: 385.7 m
Data from the previous 72 hours. | See also: Recent months for locations in South Australia
Date/Time
CDT
Temp
°C
App
Temp
°C
Dew
Point
Rel
Hum
%
Delta-T
°C
Wind Press
QNH
hPa
Press
MSL
hPa
Rain
since 9 am
mm
Dir
 
Spd
km/h
Gust
km/h
Spd
kts
Gust
kts
14/11:00pm - - - - - S 15 19 8 10 - - -
14/10:30pm - - - - - S 19 24 10 13 - - -
14/10:00pm - - - - - S 20 24 11 13 - - -
14/09:30pm - - - - - SSE 22 30 12 16 - - -
14/09:00pm - - - - - S 20 24 11 13 - - -
14/08:30pm - - - - - S 19 22 10 12 - - -
14/08:00pm - - - - - S 20 24 11 13 - - -
14/07:30pm - - - - - S 15 22 8 12 - - -
14/07:00pm - - - - - S 19 24 10 13 - - -
14/06:30pm - - - - - SSW 9 17 5 9 - - -
14/06:00pm - - - - - SSW 11 19 6 10 - - -
14/05:30pm - - - - - SW 7 17 4 9 - - -
14/05:00pm - - - - - WNW 9 22 5 12 - - -
14/04:30pm - - - - - WNW 9 22 5 12 - - -
14/04:00pm - - - - - W 11 22 6 12 - - -
14/03:30pm - - - - - W 9 19 5 10 - - -
14/03:00pm - - - - - SW 6 9 3 5 - - -
14/02:30pm - - - - - SSW 9 17 5 9 - - -
14/02:00pm - - - - - SSW 9 20 5 11 - - -
14/01:30pm - - - - - WNW 9 20 5 11 - - -
14/01:00pm - - - - - WNW 7 13 4 7 - - -
14/12:30pm - - - - - W 7 15 4 8 - - -
14/12:00pm - - - - - W 7 17 4 9 - - -
14/11:30am - - - - - SSW 7 13 4 7 - - -
14/11:00am - - - - - SW 9 19 5 10 - - -
14/10:30am - - - - - W 7 13 4 7 - - -
14/10:00am - - - - - W 6 9 3 5 - - -
14/09:30am - - - - - SW 7 13 4 7 - - -
14/09:00am - - - - - SSW 9 15 5 8 - - -
14/08:30am - - - - - SSW 7 17 4 9 - - -
14/08:00am - - - - - SSW 9 17 5 9 - - -
14/07:30am - - - - - SW 9 15 5 8 - - -
14/07:00am - - - - - SW 7 15 4 8 - - -
14/06:30am - - - - - SW 9 15 5 8 - - -
14/06:00am - - - - - SW 9 17 5 9 - - -
14/05:30am - - - - - SW 11 17 6 9 - - -
14/05:00am - - - - - SW 7 15 4 8 - - -
14/04:30am - - - - - SW 11 19 6 10 - - -
14/04:00am - - - - - SW 13 22 7 12 - - -
14/03:30am - - - - - SW 9 17 5 9 - - -
14/03:00am - - - - - SW 9 13 5 7 - - -
14/02:30am - - - - - SSW 7 15 4 8 - - -
14/02:00am - - - - - SSW 7 11 4 6 - - -
14/01:30am - - - - - S 9 13 5 7 - - -
14/01:00am - - - - - S 13 17 7 9 - - -
14/12:30am - - - - - SSE 17 20 9 11 - - -
14/12:00am - - - - - S 17 22 9 12 - - -
 
Date/Time
CDT
Temp
°C
App
Temp
°C
Dew
Point
Rel
Hum
%
Delta-T
°C
Wind Press
QNH
hPa
Press
MSL
hPa
Rain
since 9 am
mm
Dir
 
Spd
km/h
Gust
km/h
Spd
kts
Gust
kts
13/11:30pm - - - - - S 22 28 12 15 - - -
13/11:00pm - - - - - S 20 24 11 13 - - -
13/10:30pm - - - - - S 19 26 10 14 - - -
13/10:00pm - - - - - S 22 26 12 14 - - -
13/09:30pm - - - - - S 24 30 13 16 - - -
13/09:00pm - - - - - S 24 32 13 17 - - -
13/08:30pm - - - - - S 26 33 14 18 - - -
13/08:00pm - - - - - S 17 28 9 15 - - -
13/07:30pm - - - - - S 11 20 6 11 - - -
13/07:00pm - - - - - S 11 17 6 9 - - -
13/06:30pm - - - - - S 13 20 7 11 - - -
13/06:00pm - - - - - S 9 17 5 9 - - -
13/05:30pm - - - - - S 7 15 4 8 - - -
13/05:00pm - - - - - W 7 13 4 7 - - -
13/04:30pm - - - - - W 6 13 3 7 - - -
13/04:00pm - - - - - W 6 11 3 6 - - -
13/03:30pm - - - - - WNW 6 13 3 7 - - -
13/03:00pm - - - - - WNW 7 13 4 7 - - -
13/02:30pm - - - - - WNW 6 13 3 7 - - -
13/02:00pm - - - - - WNW 7 13 4 7 - - -
13/01:30pm - - - - - WNW 7 15 4 8 - - -
13/01:00pm - - - - - WNW 7 13 4 7 - - -
13/12:30pm - - - - - WNW 6 13 3 7 - - -
13/12:00pm - - - - - WNW 7 13 4 7 - - -
13/11:30am - - - - - WNW 6 13 3 7 - - -
13/11:00am - - - - - WNW 7 15 4 8 - - -
13/10:30am - - - - - NW 9 17 5 9 - - -
13/10:00am - - - - - NW 7 11 4 6 - - -
13/09:30am - - - - - NW 7 13 4 7 - - -
13/09:00am - - - - - NW 7 15 4 8 - - -
13/08:30am - - - - - NNW 9 15 5 8 - - -
13/08:00am - - - - - NNW 7 13 4 7 - - -
13/07:30am - - - - - NW 7 11 4 6 - - -
13/07:00am - - - - - NW 9 15 5 8 - - -
13/06:30am - - - - - NW 7 11 4 6 - - -
13/06:00am - - - - - NW 7 11 4 6 - - -
13/05:30am - - - - - NNW 7 9 4 5 - - -
13/05:00am - - - - - NNW 7 11 4 6 - - -
13/04:30am - - - - - NNW 7 9 4 5 - - -
13/04:00am - - - - - NNW 7 11 4 6 - - -
13/03:30am - - - - - NW 9 11 5 6 - - -
13/03:00am - - - - - NW 7 13 4 7 - - -
13/02:30am - - - - - NW 9 13 5 7 - - -
13/02:00am - - - - - NW 9 13 5 7 - - -
13/01:30am - - - - - NNW 9 13 5 7 - - -
13/01:00am - - - - - NNW 9 13 5 7 - - -
13/12:30am - - - - - NNW 7 11 4 6 - - -
13/12:00am - - - - - NNW 6 7 3 4 - - -
 
Date/Time
CDT
Temp
°C
App
Temp
°C
Dew
Point
Rel
Hum
%
Delta-T
°C
Wind Press
QNH
hPa
Press
MSL
hPa
Rain
since 9 am
mm
Dir
 
Spd
km/h
Gust
km/h
Spd
kts
Gust
kts
12/11:30pm - - - - - NNW 6 9 3 5 - - -
12/11:00pm - - - - - NW 6 9 3 5 - - -
12/10:30pm - - - - - NW 6 9 3 5 - - -
12/10:00pm - - - - - NW 7 9 4 5 - - -
12/09:30pm - - - - - NW 6 9 3 5 - - -
12/09:00pm - - - - - WNW 4 6 2 3 - - -
12/08:30pm - - - - - WSW 6 7 3 4 - - -
12/08:00pm - - - - - W 6 9 3 5 - - -
12/07:30pm - - - - - WSW 6 9 3 5 - - -
12/07:00pm - - - - - W 7 13 4 7 - - -
12/06:30pm - - - - - W 6 11 3 6 - - -
12/06:00pm - - - - - WNW 6 13 3 7 - - -
12/05:30pm - - - - - WNW 7 11 4 6 - - -
12/05:00pm - - - - - WNW 7 13 4 7 - - -
12/04:30pm - - - - - WNW 6 11 3 6 - - -
12/04:00pm - - - - - WNW 6 13 3 7 - - -
12/03:30pm - - - - - NW 7 15 4 8 - - -
12/03:00pm - - - - - NW 6 17 3 9 - - -
12/02:30pm - - - - - NNW 7 15 4 8 - - -
12/02:00pm - - - - - NNW 9 15 5 8 - - -
12/01:30pm - - - - - NNW 7 13 4 7 - - -
12/01:00pm - - - - - NNW 7 13 4 7 - - -
12/12:30pm - - - - - NNW 7 13 4 7 - - -
12/12:00pm - - - - - NW 7 13 4 7 - - -
12/11:30am - - - - - NNW 6 9 3 5 - - -
12/11:00am - - - - - NNW 4 6 2 3 - - -
12/10:30am - - - - - NE 6 9 3 5 - - -
12/10:00am - - - - - NNE 4 9 2 5 - - -
12/09:30am - - - - - E 7 11 4 6 - - -
12/09:00am - - - - - ESE 15 22 8 12 - - -
12/08:30am - - - - - ESE 17 22 9 12 - - -
12/08:00am - - - - - ESE 19 26 10 14 - - -
12/07:30am - - - - - SE 20 26 11 14 - - -
12/07:00am - - - - - ESE 22 30 12 16 - - -
12/06:30am - - - - - SE 26 30 14 16 - - -
12/06:00am - - - - - SE 28 32 15 17 - - -
12/05:30am - - - - - SE 28 32 15 17 - - -
12/05:00am - - - - - SE 28 32 15 17 - - -
12/04:30am - - - - - SE 30 33 16 18 - - -
12/04:00am - - - - - SSE 32 37 17 20 - - -
12/03:30am - - - - - SSE 32 37 17 20 - - -
12/03:00am - - - - - SSE 33 39 18 21 - - -
12/02:30am - - - - - SSE 33 39 18 21 - - -
12/02:00am - - - - - SE 33 37 18 20 - - -
12/01:30am - - - - - SE 37 43 20 23 - - -
12/01:00am - - - - - SSE 39 48 21 26 - - -
12/12:30am - - - - - SSE 43 50 23 27 - - -
12/12:00am - - - - - SSE 46 54 25 29 - - -
 
Date/Time
CDT
Temp
°C
App
Temp
°C
Dew
Point
Rel
Hum
%
Delta-T
°C
Wind Press
QNH
hPa
Press
MSL
hPa
Rain
since 9 am
mm
Dir
 
Spd
km/h
Gust
km/h
Spd
kts
Gust
kts
11/11:30pm - - - - - SSE 46 54 25 29 - - -

Other Formats:

Comma delimited format used in spreadsheet applications
http://www.bom.gov.au/fwo/IDS60801/IDS60801.95679.axf

JavaScript Object Notation format (JSON) in row-major order
http://www.bom.gov.au/fwo/IDS60801/IDS60801.95679.json